createdAt,value
2023-02-26T00:01:29.798Z,3.00
2023-02-26T00:04:01.998Z,2.67
2023-02-26T00:06:30.051Z,2.50
2023-02-26T00:08:58.152Z,3.20
2023-02-26T00:11:27.944Z,2.73
2023-02-26T00:13:56.416Z,3.57
2023-02-26T00:16:28.246Z,3.00
2023-02-26T00:18:56.595Z,2.57
2023-02-26T00:21:25.101Z,3.50
2023-02-26T00:23:53.065Z,2.90
2023-02-26T00:26:21.012Z,3.30
2023-02-26T00:28:51.148Z,3.50
2023-02-26T00:31:21.079Z,3.53
2023-02-26T00:33:49.508Z,3.47
2023-02-26T00:36:22.499Z,3.73
2023-02-26T00:38:57.095Z,2.90
2023-02-26T00:41:25.723Z,3.10
2023-02-26T00:43:55.590Z,2.70
2023-02-26T00:46:26.607Z,3.07
2023-02-26T00:48:57.300Z,3.00
2023-02-26T00:51:29.231Z,3.30
2023-02-26T00:54:00.721Z,2.63
2023-02-26T00:56:28.600Z,3.53
2023-02-26T00:58:57.921Z,3.87
2023-02-26T01:01:25.797Z,3.40
2023-02-26T01:03:54.311Z,3.80
2023-02-26T01:06:22.721Z,3.27
2023-02-26T01:08:54.554Z,3.30
2023-02-26T01:11:22.820Z,3.97
2023-02-26T01:13:51.128Z,3.07
2023-02-26T01:16:22.370Z,3.43
2023-02-26T01:18:53.099Z,3.50
2023-02-26T01:21:23.439Z,2.87
2023-02-26T01:23:52.470Z,3.00
2023-02-26T01:26:22.542Z,3.10
2023-02-26T01:28:50.986Z,3.37
2023-02-26T01:31:28.129Z,3.20
2023-02-26T01:33:57.625Z,3.30
2023-02-26T01:36:26.552Z,3.10
2023-02-26T01:38:59.054Z,3.27
2023-02-26T01:41:31.743Z,3.23
2023-02-26T01:44:06.745Z,3.00
2023-02-26T01:46:38.217Z,3.13
2023-02-26T01:49:06.356Z,3.33
2023-02-26T01:51:50.682Z,3.60
2023-02-26T01:54:20.739Z,3.50
2023-02-26T01:56:51.315Z,3.50
2023-02-26T01:59:24.278Z,3.80
2023-02-26T02:01:54.434Z,3.53
2023-02-26T02:04:22.263Z,3.30
2023-02-26T02:06:50.095Z,3.60
2023-02-26T02:09:18.027Z,3.70
2023-02-26T02:12:09.594Z,3.50
2023-02-26T02:14:45.840Z,3.50
2023-02-26T02:17:17.636Z,3.67
2023-02-26T02:20:11.785Z,3.97
2023-02-26T02:22:52.872Z,3.47
2023-02-26T02:25:44.309Z,4.30
2023-02-26T02:28:16.883Z,3.60
2023-02-26T02:30:58.952Z,3.57
2023-02-26T02:33:29.863Z,3.43
2023-02-26T02:35:59.055Z,3.30
2023-02-26T02:38:29.100Z,3.30
2023-02-26T02:41:02.390Z,3.77
2023-02-26T02:43:32.370Z,4.23
2023-02-26T02:46:03.318Z,4.13
2023-02-26T02:48:33.230Z,3.20
2023-02-26T02:51:02.523Z,3.20
2023-02-26T02:53:34.115Z,3.47
2023-02-26T02:56:05.744Z,3.37
2023-02-26T02:58:35.892Z,3.27
2023-02-26T03:01:08.034Z,3.53
2023-02-26T03:03:38.108Z,3.40
2023-02-26T03:06:06.320Z,3.17
2023-02-26T03:08:36.382Z,3.63
2023-02-26T03:11:04.262Z,3.47
2023-02-26T03:13:32.216Z,2.80
2023-02-26T03:16:08.391Z,3.70
2023-02-26T03:18:43.047Z,3.33
2023-02-26T03:21:14.683Z,3.80
2023-02-26T03:23:46.363Z,3.83
2023-02-26T03:26:16.366Z,3.37
2023-02-26T03:28:46.569Z,3.10
2023-02-26T03:31:18.161Z,2.50
2023-02-26T03:33:51.539Z,3.90
2023-02-26T03:36:20.591Z,3.80
2023-02-26T03:38:51.284Z,3.93
2023-02-26T03:41:22.622Z,3.63
2023-02-26T03:43:52.240Z,3.53
2023-02-26T03:46:26.238Z,3.73
2023-02-26T03:48:54.405Z,3.53
2023-02-26T03:51:22.273Z,3.23
2023-02-26T03:53:51.886Z,3.63
2023-02-26T03:56:21.618Z,3.73
2023-02-26T03:58:49.503Z,2.83
2023-02-26T04:01:19.270Z,2.90
2023-02-26T04:03:50.774Z,3.37
2023-02-26T04:06:20.398Z,3.50
2023-02-26T04:08:48.337Z,3.03
2023-02-26T04:11:17.752Z,2.87
2023-02-26T04:13:45.646Z,3.53
2023-02-26T04:16:13.559Z,3.43
2023-02-26T04:18:42.543Z,2.97
2023-02-26T04:21:13.833Z,3.50
2023-02-26T04:23:41.691Z,3.07
2023-02-26T04:26:09.531Z,2.93
2023-02-26T04:28:37.985Z,3.43
2023-02-26T04:31:06.171Z,2.77
2023-02-26T04:33:34.289Z,2.70
2023-02-26T04:36:02.887Z,2.60
2023-02-26T04:38:32.111Z,2.37
2023-02-26T04:40:59.979Z,2.70
2023-02-26T04:43:27.886Z,2.50
2023-02-26T04:45:55.817Z,2.33
2023-02-26T04:48:23.687Z,2.97
2023-02-26T04:50:51.654Z,2.73
2023-02-26T04:53:19.489Z,2.27
2023-02-26T04:55:51.381Z,3.13
2023-02-26T04:58:20.191Z,3.20
2023-02-26T05:00:49.763Z,3.37
2023-02-26T05:03:17.645Z,3.27
2023-02-26T05:05:45.597Z,3.43
2023-02-26T05:08:13.473Z,3.60
2023-02-26T05:10:41.407Z,3.17
2023-02-26T05:13:10.690Z,3.27
2023-02-26T05:15:38.572Z,3.30
2023-02-26T05:18:06.552Z,3.40
2023-02-26T05:20:34.449Z,3.43
2023-02-26T05:23:02.300Z,2.77
2023-02-26T05:25:30.270Z,2.90
2023-02-26T05:27:58.184Z,3.40
2023-02-26T05:30:27.445Z,2.93
2023-02-26T05:32:55.704Z,3.43
2023-02-26T05:35:23.616Z,3.10
2023-02-26T05:37:51.507Z,3.00
2023-02-26T05:40:19.540Z,2.77
2023-02-26T05:42:47.404Z,2.80
2023-02-26T05:45:15.337Z,3.00
2023-02-26T05:47:44.567Z,2.73
2023-02-26T05:50:13.330Z,2.90
2023-02-26T05:52:41.209Z,2.53
2023-02-26T05:55:10.546Z,2.73
2023-02-26T05:57:38.436Z,2.70
2023-02-26T06:00:07.456Z,3.10
2023-02-26T06:02:35.314Z,3.13
2023-02-26T06:05:05.048Z,2.63
2023-02-26T06:07:33.005Z,2.77
2023-02-26T06:10:00.881Z,2.90
2023-02-26T06:12:28.750Z,4.00
2023-02-26T06:14:56.588Z,2.50
2023-02-26T06:17:24.462Z,3.37
2023-02-26T06:19:52.969Z,2.87
2023-02-26T06:22:22.199Z,2.73
2023-02-26T06:24:50.076Z,2.53
2023-02-26T06:27:17.933Z,3.20
2023-02-26T06:29:45.806Z,3.03
2023-02-26T06:32:13.805Z,2.90
2023-02-26T06:34:41.847Z,2.67
2023-02-26T06:37:09.702Z,2.30
2023-02-26T06:39:38.931Z,2.80
2023-02-26T06:42:06.900Z,3.70
2023-02-26T06:44:34.860Z,2.70
2023-02-26T06:47:02.696Z,2.83
2023-02-26T06:49:30.604Z,2.80
2023-02-26T06:51:58.442Z,3.00
2023-02-26T06:54:26.290Z,2.90
2023-02-26T06:56:57.748Z,2.73
2023-02-26T06:59:25.685Z,3.03
2023-02-26T07:01:53.632Z,3.20
2023-02-26T07:04:21.520Z,2.80
2023-02-26T07:06:49.471Z,3.03
2023-02-26T07:09:19.843Z,2.70
2023-02-26T07:11:48.327Z,3.10
2023-02-26T07:14:17.635Z,3.27
2023-02-26T07:16:45.540Z,3.20
2023-02-26T07:19:13.455Z,3.93
2023-02-26T07:21:41.346Z,3.27
2023-02-26T07:24:09.915Z,3.47
2023-02-26T07:26:37.742Z,3.10
2023-02-26T07:29:05.702Z,3.27
2023-02-26T07:31:35.184Z,2.93
2023-02-26T07:34:03.403Z,3.03
2023-02-26T07:36:31.244Z,2.97
2023-02-26T07:38:59.169Z,3.57
2023-02-26T07:41:27.056Z,2.93
2023-02-26T07:43:55.059Z,3.10
2023-02-26T07:46:22.980Z,3.27
2023-02-26T07:48:52.385Z,2.80
2023-02-26T07:51:20.459Z,3.03
2023-02-26T07:53:48.366Z,2.93
2023-02-26T07:56:16.243Z,3.00
2023-02-26T07:58:44.125Z,2.90
2023-02-26T08:01:12.105Z,3.00
2023-02-26T08:03:39.994Z,3.30
2023-02-26T08:06:10.086Z,3.63
2023-02-26T08:08:38.043Z,3.30
2023-02-26T08:11:06.006Z,3.80
2023-02-26T08:13:33.921Z,4.23
2023-02-26T08:16:01.941Z,3.93
2023-02-26T08:18:29.822Z,3.93
2023-02-26T08:20:57.870Z,4.10
2023-02-26T08:23:27.812Z,3.80
2023-02-26T08:26:01.680Z,3.63
2023-02-26T08:28:29.950Z,3.47
2023-02-26T08:30:57.984Z,4.00
2023-02-26T08:33:26.433Z,3.97
2023-02-26T08:35:55.806Z,4.30
2023-02-26T08:38:23.637Z,3.93
2023-02-26T08:40:53.685Z,4.30
2023-02-26T08:43:21.655Z,3.87
2023-02-26T08:45:49.761Z,4.13
2023-02-26T08:48:17.659Z,3.57
2023-02-26T08:50:45.542Z,3.30
2023-02-26T08:53:13.447Z,2.40
2023-02-26T08:55:41.308Z,2.57
2023-02-26T08:58:10.684Z,2.47
2023-02-26T09:00:38.521Z,2.30
2023-02-26T09:03:06.445Z,3.00
2023-02-26T09:05:34.412Z,2.23
2023-02-26T09:08:02.312Z,2.60
2023-02-26T09:10:30.403Z,2.90
2023-02-26T09:12:58.300Z,2.30
2023-02-26T09:15:27.583Z,3.10
2023-02-26T09:17:55.492Z,2.00
2023-02-26T09:20:23.537Z,1.93
2023-02-26T09:22:51.438Z,2.47
2023-02-26T09:25:19.494Z,2.50
2023-02-26T09:27:47.410Z,2.50
2023-02-26T09:30:15.689Z,2.40
2023-02-26T09:32:44.982Z,3.17
2023-02-26T09:35:12.942Z,2.70
2023-02-26T09:37:41.223Z,2.47
2023-02-26T09:40:12.213Z,2.90
2023-02-26T09:42:49.642Z,2.97
2023-02-26T09:45:23.185Z,2.60
2023-02-26T09:47:52.955Z,2.57
2023-02-26T09:50:23.008Z,2.27
2023-02-26T09:52:56.584Z,2.77
2023-02-26T09:55:28.573Z,2.50
2023-02-26T09:57:58.991Z,1.97
2023-02-26T10:00:31.852Z,2.20
2023-02-26T10:03:04.729Z,2.00
2023-02-26T10:05:35.520Z,1.80
2023-02-26T10:08:05.840Z,2.47
2023-02-26T10:10:36.847Z,2.10
2023-02-26T10:13:04.787Z,2.00
2023-02-26T10:15:35.740Z,2.27
2023-02-26T10:18:07.715Z,2.50
2023-02-26T10:20:39.727Z,2.20
2023-02-26T10:23:18.811Z,2.83
2023-02-26T10:25:48.911Z,2.07
2023-02-26T10:28:32.135Z,1.70
2023-02-26T10:31:03.529Z,1.90
2023-02-26T10:33:37.188Z,2.30
2023-02-26T10:36:09.747Z,2.07
2023-02-26T10:38:37.680Z,1.63
2023-02-26T10:41:08.152Z,2.40
2023-02-26T10:43:38.707Z,2.03
2023-02-26T10:46:20.152Z,1.77
2023-02-26T10:48:56.701Z,2.10
2023-02-26T10:51:26.082Z,2.50
2023-02-26T10:53:55.808Z,2.57
2023-02-26T10:56:25.229Z,2.07
2023-02-26T10:58:54.443Z,2.27
2023-02-26T11:01:23.610Z,2.70
2023-02-26T11:03:56.504Z,2.17
2023-02-26T11:06:25.466Z,2.33
2023-02-26T11:08:54.450Z,1.80
2023-02-26T11:11:40.822Z,2.50
2023-02-26T11:14:09.574Z,1.73
2023-02-26T11:16:37.522Z,2.00
2023-02-26T11:19:06.759Z,1.57
2023-02-26T11:21:38.064Z,1.53
2023-02-26T11:24:07.805Z,1.40
2023-02-26T11:26:37.119Z,1.70
2023-02-26T11:29:05.359Z,2.27
2023-02-26T11:31:33.909Z,1.53
2023-02-26T11:34:04.970Z,2.10
2023-02-26T11:36:37.015Z,1.53
2023-02-26T11:39:06.479Z,1.40
2023-02-26T11:41:37.286Z,1.70
2023-02-26T11:44:06.805Z,1.23
2023-02-26T11:46:35.725Z,1.30
2023-02-26T11:49:03.658Z,1.27
2023-02-26T11:51:31.566Z,1.80
2023-02-26T11:54:01.615Z,1.30
2023-02-26T11:56:34.234Z,1.57
2023-02-26T11:59:03.664Z,1.30
2023-02-26T12:01:31.585Z,1.30
2023-02-26T12:04:00.672Z,1.20
2023-02-26T12:06:28.640Z,1.00
2023-02-26T12:08:56.568Z,1.00
2023-02-26T12:11:49.737Z,1.10
2023-02-26T12:14:48.581Z,1.50
2023-02-26T12:17:27.399Z,0.93
2023-02-26T12:19:58.385Z,1.80
2023-02-26T12:22:37.525Z,1.17
2023-02-26T12:25:18.065Z,0.70
2023-02-26T12:28:06.975Z,1.70
2023-02-26T12:30:45.509Z,1.00
2023-02-26T12:33:19.844Z,1.43
2023-02-26T12:35:53.118Z,1.20
2023-02-26T12:38:22.824Z,1.33
2023-02-26T12:41:23.011Z,1.13
2023-02-26T12:43:52.651Z,1.30
2023-02-26T12:46:37.366Z,1.50
2023-02-26T12:49:30.374Z,1.63
2023-02-26T12:52:12.366Z,1.53
2023-02-26T12:54:47.626Z,1.37
2023-02-26T12:57:35.038Z,1.73
2023-02-26T13:00:25.979Z,1.47
2023-02-26T13:03:25.891Z,1.70
2023-02-26T13:06:03.453Z,1.80
2023-02-26T13:08:33.570Z,1.60
2023-02-26T13:11:09.063Z,1.80
2023-02-26T13:13:55.156Z,1.67
2023-02-26T13:16:32.114Z,1.73
2023-02-26T13:19:03.962Z,1.67
2023-02-26T13:21:33.643Z,1.53
2023-02-26T13:24:05.514Z,2.10
2023-02-26T13:26:33.502Z,1.97
2023-02-26T13:29:03.310Z,1.80
2023-02-26T13:31:34.727Z,1.50
2023-02-26T13:34:05.909Z,1.70
2023-02-26T13:36:35.353Z,1.87
2023-02-26T13:39:28.658Z,1.60
2023-02-26T13:42:00.183Z,1.80
2023-02-26T13:44:33.476Z,1.70
2023-02-26T13:47:18.919Z,1.63
2023-02-26T13:49:53.152Z,1.70
2023-02-26T13:52:25.596Z,1.80
2023-02-26T13:54:53.518Z,1.70
2023-02-26T13:57:44.434Z,1.83
2023-02-26T14:00:26.565Z,1.67
2023-02-26T14:02:59.768Z,1.83
2023-02-26T14:06:02.490Z,1.60
2023-02-26T14:08:51.811Z,1.47
2023-02-26T14:11:46.984Z,1.50
2023-02-26T14:14:20.407Z,1.70
2023-02-26T14:16:51.288Z,1.97
2023-02-26T14:19:24.678Z,1.80
2023-02-26T14:22:00.102Z,1.60
2023-02-26T14:24:36.959Z,1.67
2023-02-26T14:27:23.849Z,1.60
2023-02-26T14:30:05.167Z,1.50
2023-02-26T14:32:37.058Z,1.73
2023-02-26T14:35:10.263Z,1.67
2023-02-26T14:37:38.387Z,1.70
2023-02-26T14:40:08.971Z,1.53
2023-02-26T14:42:38.379Z,1.53
2023-02-26T14:45:14.283Z,2.40
2023-02-26T14:47:42.210Z,1.63
2023-02-26T14:50:12.916Z,1.60
2023-02-26T14:52:50.427Z,1.70
2023-02-26T14:55:27.761Z,2.00
2023-02-26T14:58:04.508Z,1.50
2023-02-26T15:00:37.578Z,1.70
2023-02-26T15:03:24.988Z,1.40
2023-02-26T15:06:11.378Z,2.47
2023-02-26T15:08:51.603Z,3.43
2023-02-26T15:11:31.820Z,1.63
2023-02-26T15:14:24.276Z,2.50
2023-02-26T15:16:57.198Z,1.60
2023-02-26T15:19:43.618Z,1.73
2023-02-26T15:22:23.574Z,1.80
2023-02-26T15:24:52.907Z,1.90
2023-02-26T15:27:21.282Z,1.70
2023-02-26T15:29:50.450Z,1.50
2023-02-26T15:32:23.362Z,1.90
2023-02-26T15:34:57.325Z,1.60
2023-02-26T15:37:28.294Z,1.60
2023-02-26T15:39:56.244Z,1.77
2023-02-26T15:42:26.888Z,1.60
2023-02-26T15:45:01.324Z,1.80
2023-02-26T15:47:29.398Z,1.63
2023-02-26T15:49:58.189Z,1.53
2023-02-26T15:52:28.282Z,2.07
2023-02-26T15:54:57.773Z,1.93
2023-02-26T15:57:26.005Z,3.40
2023-02-26T15:59:57.947Z,2.77
2023-02-26T16:02:28.503Z,2.40
2023-02-26T16:04:56.500Z,1.73
2023-02-26T16:07:24.933Z,2.03
2023-02-26T16:09:57.955Z,2.20
2023-02-26T16:12:37.924Z,2.13
2023-02-26T16:15:07.846Z,1.40
2023-02-26T16:17:40.477Z,1.67
2023-02-26T16:20:13.454Z,1.30
2023-02-26T16:22:45.904Z,1.57
2023-02-26T16:25:18.297Z,1.47
2023-02-26T16:27:51.244Z,1.33
2023-02-26T16:30:22.731Z,1.80
2023-02-26T16:32:51.451Z,1.40
2023-02-26T16:35:22.799Z,1.30
2023-02-26T16:37:52.981Z,1.70
2023-02-26T16:40:25.759Z,1.33
2023-02-26T16:43:01.592Z,1.10
2023-02-26T16:45:49.274Z,1.60
2023-02-26T16:48:19.557Z,1.63
2023-02-26T16:50:48.509Z,1.30
2023-02-26T16:53:18.389Z,1.47
2023-02-26T16:55:50.751Z,1.63
2023-02-26T16:58:25.507Z,1.70
2023-02-26T17:00:58.170Z,1.20
2023-02-26T17:03:26.964Z,1.27
2023-02-26T17:05:59.882Z,1.30
2023-02-26T17:08:34.041Z,1.63
2023-02-26T17:11:06.768Z,1.70
2023-02-26T17:13:40.984Z,1.60
2023-02-26T17:16:17.181Z,1.30
2023-02-26T17:18:47.620Z,1.40
2023-02-26T17:21:18.567Z,1.40
2023-02-26T17:23:48.149Z,1.60
2023-02-26T17:26:21.266Z,1.97
2023-02-26T17:28:51.079Z,1.70
2023-02-26T17:31:21.895Z,1.50
2023-02-26T17:33:52.371Z,1.80
2023-02-26T17:36:24.360Z,1.70
2023-02-26T17:38:54.938Z,1.47
2023-02-26T17:41:29.235Z,1.87
2023-02-26T17:43:57.191Z,1.70
2023-02-26T17:46:25.092Z,2.33
2023-02-26T17:48:53.002Z,1.90
2023-02-26T17:51:20.867Z,2.20
2023-02-26T17:53:48.758Z,2.40
2023-02-26T17:56:28.127Z,2.27
2023-02-26T17:58:56.372Z,1.80
2023-02-26T18:01:24.725Z,1.80
2023-02-26T18:03:54.657Z,1.60
2023-02-26T18:06:22.895Z,1.60
2023-02-26T18:08:50.803Z,1.93
2023-02-26T18:11:20.021Z,2.43
2023-02-26T18:13:49.305Z,2.30
2023-02-26T18:16:19.064Z,1.93
2023-02-26T18:18:49.662Z,1.63
2023-02-26T18:21:21.605Z,1.70
2023-02-26T18:23:52.524Z,1.50
2023-02-26T18:26:23.875Z,5.97
2023-02-26T18:28:58.363Z,3.87
2023-02-26T18:31:37.154Z,6.43
2023-02-26T18:34:08.016Z,5.20
2023-02-26T18:36:38.174Z,4.67
2023-02-26T18:39:10.472Z,3.73
2023-02-26T18:41:44.099Z,2.83
2023-02-26T18:44:15.985Z,3.07
2023-02-26T18:46:47.575Z,4.10
2023-02-26T18:49:18.747Z,3.70
2023-02-26T18:51:48.063Z,2.90
2023-02-26T18:54:16.139Z,2.53
2023-02-26T18:56:44.136Z,2.67
2023-02-26T18:59:13.354Z,2.33
2023-02-26T19:01:41.452Z,3.13
2023-02-26T19:04:09.414Z,2.67
2023-02-26T19:06:37.306Z,3.27
2023-02-26T19:09:05.861Z,3.80
2023-02-26T19:11:36.426Z,4.20
2023-02-26T19:14:04.329Z,3.93
2023-02-26T19:16:38.090Z,3.60
2023-02-26T19:19:06.719Z,4.67
2023-02-26T19:21:36.330Z,4.53
2023-02-26T19:24:05.091Z,4.50
2023-02-26T19:26:33.249Z,4.93
2023-02-26T19:29:01.267Z,6.43
2023-02-26T19:31:29.536Z,4.77
2023-02-26T19:33:59.051Z,5.40
2023-02-26T19:36:27.621Z,6.53
2023-02-26T19:38:55.555Z,20.63
2023-02-26T19:41:23.418Z,21.40
2023-02-26T19:43:51.471Z,16.27
2023-02-26T19:46:19.440Z,11.73
2023-02-26T19:48:47.313Z,15.00
2023-02-26T19:51:16.515Z,28.33
2023-02-26T19:53:44.410Z,27.53
2023-02-26T19:56:12.665Z,29.33
2023-02-26T19:58:40.566Z,27.00
2023-02-26T20:01:08.419Z,21.33
2023-02-26T20:03:36.430Z,20.53
2023-02-26T20:06:04.468Z,18.97
2023-02-26T20:08:33.840Z,16.67
2023-02-26T20:11:02.274Z,13.83
2023-02-26T20:13:30.374Z,16.23
2023-02-26T20:15:58.628Z,15.10
2023-02-26T20:18:27.583Z,23.37
2023-02-26T20:20:56.727Z,17.63
2023-02-26T20:23:24.587Z,17.40
2023-02-26T20:25:55.271Z,16.57
2023-02-26T20:28:23.316Z,16.57
2023-02-26T20:30:51.278Z,19.57
2023-02-26T20:33:19.407Z,16.10
2023-02-26T20:35:47.458Z,14.50
2023-02-26T20:38:15.728Z,18.77
2023-02-26T20:40:43.841Z,25.80
2023-02-26T20:43:13.092Z,26.07
2023-02-26T20:45:41.055Z,24.87
2023-02-26T20:48:09.332Z,42.60
2023-02-26T20:50:37.563Z,37.53
2023-02-26T20:53:05.575Z,46.13
2023-02-26T20:55:33.535Z,35.97
2023-02-26T20:58:01.503Z,30.87
2023-02-26T21:00:30.869Z,24.00
2023-02-26T21:02:58.746Z,23.80
2023-02-26T21:05:26.640Z,23.57
2023-02-26T21:07:56.363Z,18.77
2023-02-26T21:10:24.258Z,16.30
2023-02-26T21:12:52.833Z,17.33
2023-02-26T21:15:20.959Z,15.57
2023-02-26T21:17:50.246Z,13.83
2023-02-26T21:20:18.651Z,14.27
2023-02-26T21:22:46.586Z,13.60
2023-02-26T21:25:14.425Z,12.87
2023-02-26T21:27:42.296Z,12.60
2023-02-26T21:30:11.982Z,12.77
2023-02-26T21:32:40.169Z,13.20
2023-02-26T21:35:11.394Z,12.63
2023-02-26T21:37:39.297Z,11.80
2023-02-26T21:40:09.433Z,13.13
2023-02-26T21:42:37.349Z,11.23
2023-02-26T21:45:05.846Z,11.80
2023-02-26T21:47:34.038Z,13.93
2023-02-26T21:50:01.940Z,13.20
2023-02-26T21:52:31.210Z,15.10
2023-02-26T21:54:59.050Z,10.53
2023-02-26T21:57:28.878Z,10.43
2023-02-26T21:59:57.358Z,10.67
2023-02-26T22:02:25.316Z,9.87
2023-02-26T22:04:53.294Z,11.20
2023-02-26T22:07:21.387Z,10.70
2023-02-26T22:09:51.813Z,10.53
2023-02-26T22:12:21.181Z,10.23
2023-02-26T22:14:49.395Z,8.47
2023-02-26T22:17:17.262Z,8.97
2023-02-26T22:19:45.177Z,8.23
2023-02-26T22:22:13.073Z,8.77
2023-02-26T22:24:41.335Z,8.03
2023-02-26T22:27:10.590Z,7.53
2023-02-26T22:29:39.215Z,8.47
2023-02-26T22:32:07.531Z,9.00
2023-02-26T22:34:36.796Z,8.03
2023-02-26T22:37:04.662Z,7.53
2023-02-26T22:39:33.220Z,6.97
2023-02-26T22:42:01.133Z,6.97
2023-02-26T22:44:30.794Z,5.57
2023-02-26T22:46:58.966Z,6.07
2023-02-26T22:49:27.180Z,3.17
2023-02-26T22:51:55.067Z,3.20
2023-02-26T22:54:22.974Z,3.40
2023-02-26T22:56:51.002Z,3.03
2023-02-26T22:59:18.862Z,3.30
2023-02-26T23:01:48.376Z,3.10
2023-02-26T23:04:16.668Z,3.73
2023-02-26T23:06:44.531Z,3.33
2023-02-26T23:09:12.450Z,3.57
2023-02-26T23:11:40.369Z,3.90
2023-02-26T23:14:08.283Z,3.67
2023-02-26T23:16:36.118Z,4.17
2023-02-26T23:19:05.420Z,4.00
2023-02-26T23:21:33.374Z,4.17
2023-02-26T23:24:01.284Z,4.37
2023-02-26T23:26:29.279Z,5.20
2023-02-26T23:28:57.201Z,5.07
2023-02-26T23:31:25.775Z,5.60
2023-02-26T23:33:53.910Z,4.60
2023-02-26T23:36:23.187Z,4.57
2023-02-26T23:38:51.040Z,3.90
2023-02-26T23:41:19.965Z,3.87
2023-02-26T23:43:47.838Z,4.73
2023-02-26T23:46:15.768Z,4.93
2023-02-26T23:48:43.659Z,3.93
2023-02-26T23:51:11.611Z,3.73
2023-02-26T23:53:40.861Z,4.10
2023-02-26T23:56:09.182Z,3.37
2023-02-26T23:58:37.086Z,4.00
